sensor_id;sensor_type;location;lat;lon;timestamp;P1;durP1;ratioP1;P2;durP2;ratioP2
18249;SDS011;27980;52.126;5.572;2023-05-20T00:01:01;1.60;;;1.50;;
18249;SDS011;27980;52.126;5.572;2023-05-20T00:03:28;6.45;;;2.20;;
18249;SDS011;27980;52.126;5.572;2023-05-20T00:05:55;6.13;;;1.80;;
18249;SDS011;27980;52.126;5.572;2023-05-20T00:08:21;4.32;;;1.52;;
18249;SDS011;27980;52.126;5.572;2023-05-20T00:10:47;3.08;;;2.20;;
18249;SDS011;27980;52.126;5.572;2023-05-20T00:13:15;6.50;;;1.92;;
18249;SDS011;27980;52.126;5.572;2023-05-20T00:15:41;2.92;;;2.08;;
18249;SDS011;27980;52.126;5.572;2023-05-20T00:18:07;5.45;;;2.20;;
18249;SDS011;27980;52.126;5.572;2023-05-20T00:20:35;2.92;;;1.75;;
18249;SDS011;27980;52.126;5.572;2023-05-20T00:23:04;2.25;;;1.58;;
18249;SDS011;27980;52.126;5.572;2023-05-20T00:25:30;1.88;;;1.77;;
18249;SDS011;27980;52.126;5.572;2023-05-20T00:27:57;5.78;;;2.10;;
18249;SDS011;27980;52.126;5.572;2023-05-20T00:30:23;3.67;;;2.50;;
18249;SDS011;27980;52.126;5.572;2023-05-20T00:32:50;4.82;;;1.98;;
18249;SDS011;27980;52.126;5.572;2023-05-20T00:35:19;4.78;;;2.20;;
18249;SDS011;27980;52.126;5.572;2023-05-20T00:37:47;4.45;;;2.15;;
18249;SDS011;27980;52.126;5.572;2023-05-20T00:40:16;6.60;;;2.63;;
18249;SDS011;27980;52.126;5.572;2023-05-20T00:42:43;4.47;;;2.30;;
18249;SDS011;27980;52.126;5.572;2023-05-20T00:45:09;4.35;;;2.50;;
18249;SDS011;27980;52.126;5.572;2023-05-20T00:47:36;3.85;;;2.42;;
18249;SDS011;27980;52.126;5.572;2023-05-20T00:50:03;6.18;;;2.42;;
18249;SDS011;27980;52.126;5.572;2023-05-20T00:52:30;2.85;;;1.98;;
18249;SDS011;27980;52.126;5.572;2023-05-20T00:54:58;4.78;;;2.55;;
18249;SDS011;27980;52.126;5.572;2023-05-20T00:57:25;5.28;;;2.70;;
18249;SDS011;27980;52.126;5.572;2023-05-20T00:59:52;6.65;;;2.88;;
18249;SDS011;27980;52.126;5.572;2023-05-20T01:02:18;4.75;;;2.15;;
18249;SDS011;27980;52.126;5.572;2023-05-20T01:04:44;3.40;;;2.05;;
18249;SDS011;27980;52.126;5.572;2023-05-20T01:07:12;5.90;;;2.20;;
18249;SDS011;27980;52.126;5.572;2023-05-20T01:09:38;5.30;;;2.25;;
18249;SDS011;27980;52.126;5.572;2023-05-20T01:12:09;2.40;;;2.20;;
18249;SDS011;27980;52.126;5.572;2023-05-20T01:14:39;4.60;;;2.47;;
18249;SDS011;27980;52.126;5.572;2023-05-20T01:17:07;2.75;;;2.40;;
18249;SDS011;27980;52.126;5.572;2023-05-20T01:19:37;7.30;;;2.60;;
18249;SDS011;27980;52.126;5.572;2023-05-20T01:22:05;4.55;;;2.33;;
18249;SDS011;27980;52.126;5.572;2023-05-20T01:24:33;4.40;;;2.40;;
18249;SDS011;27980;52.126;5.572;2023-05-20T01:27:00;4.40;;;2.25;;
18249;SDS011;27980;52.126;5.572;2023-05-20T01:29:26;3.70;;;2.65;;
18249;SDS011;27980;52.126;5.572;2023-05-20T01:31:52;3.05;;;2.03;;
18249;SDS011;27980;52.126;5.572;2023-05-20T01:34:20;5.25;;;2.42;;
18249;SDS011;27980;52.126;5.572;2023-05-20T01:36:46;2.83;;;2.28;;
18249;SDS011;27980;52.126;5.572;2023-05-20T01:39:13;3.30;;;2.10;;
18249;SDS011;27980;52.126;5.572;2023-05-20T01:41:41;11.95;;;2.58;;
18249;SDS011;27980;52.126;5.572;2023-05-20T01:44:08;6.63;;;2.30;;
18249;SDS011;27980;52.126;5.572;2023-05-20T01:46:34;6.55;;;2.70;;
18249;SDS011;27980;52.126;5.572;2023-05-20T01:49:01;3.88;;;2.95;;
18249;SDS011;27980;52.126;5.572;2023-05-20T01:51:27;2.22;;;2.03;;
18249;SDS011;27980;52.126;5.572;2023-05-20T01:53:54;3.72;;;2.13;;
18249;SDS011;27980;52.126;5.572;2023-05-20T01:56:21;5.97;;;2.38;;
18249;SDS011;27980;52.126;5.572;2023-05-20T01:58:49;8.82;;;2.83;;
18249;SDS011;27980;52.126;5.572;2023-05-20T02:01:15;3.65;;;2.17;;
18249;SDS011;27980;52.126;5.572;2023-05-20T02:03:41;3.03;;;2.20;;
18249;SDS011;27980;52.126;5.572;2023-05-20T02:06:08;2.88;;;2.10;;
18249;SDS011;27980;52.126;5.572;2023-05-20T02:08:35;9.85;;;2.65;;
18249;SDS011;27980;52.126;5.572;2023-05-20T02:11:01;4.20;;;2.33;;
18249;SDS011;27980;52.126;5.572;2023-05-20T02:13:28;3.88;;;2.60;;
18249;SDS011;27980;52.126;5.572;2023-05-20T02:15:56;7.35;;;2.80;;
18249;SDS011;27980;52.126;5.572;2023-05-20T02:18:22;3.45;;;2.63;;
18249;SDS011;27980;52.126;5.572;2023-05-20T02:20:50;5.00;;;2.75;;
18249;SDS011;27980;52.126;5.572;2023-05-20T02:23:16;2.40;;;2.20;;
18249;SDS011;27980;52.126;5.572;2023-05-20T02:25:43;5.07;;;3.10;;
18249;SDS011;27980;52.126;5.572;2023-05-20T02:28:12;5.50;;;2.80;;
18249;SDS011;27980;52.126;5.572;2023-05-20T02:30:39;3.45;;;2.55;;
18249;SDS011;27980;52.126;5.572;2023-05-20T02:33:07;4.40;;;2.30;;
18249;SDS011;27980;52.126;5.572;2023-05-20T02:35:34;4.07;;;2.30;;
18249;SDS011;27980;52.126;5.572;2023-05-20T02:38:00;3.65;;;2.40;;
18249;SDS011;27980;52.126;5.572;2023-05-20T02:40:27;3.45;;;2.25;;
18249;SDS011;27980;52.126;5.572;2023-05-20T02:42:53;3.78;;;2.50;;
18249;SDS011;27980;52.126;5.572;2023-05-20T02:45:20;3.95;;;2.55;;
18249;SDS011;27980;52.126;5.572;2023-05-20T02:47:46;6.57;;;2.30;;
18249;SDS011;27980;52.126;5.572;2023-05-20T02:50:14;5.10;;;2.72;;
18249;SDS011;27980;52.126;5.572;2023-05-20T02:52:41;3.25;;;2.40;;
18249;SDS011;27980;52.126;5.572;2023-05-20T02:55:07;3.75;;;2.88;;
18249;SDS011;27980;52.126;5.572;2023-05-20T02:57:35;4.65;;;2.38;;
18249;SDS011;27980;52.126;5.572;2023-05-20T03:00:02;3.10;;;2.80;;
18249;SDS011;27980;52.126;5.572;2023-05-20T03:02:29;4.07;;;2.70;;
18249;SDS011;27980;52.126;5.572;2023-05-20T03:04:56;4.10;;;2.40;;
18249;SDS011;27980;52.126;5.572;2023-05-20T03:07:24;9.13;;;2.67;;
18249;SDS011;27980;52.126;5.572;2023-05-20T03:09:50;5.32;;;2.92;;
18249;SDS011;27980;52.126;5.572;2023-05-20T03:12:17;2.85;;;2.50;;
18249;SDS011;27980;52.126;5.572;2023-05-20T03:14:43;3.00;;;2.45;;
18249;SDS011;27980;52.126;5.572;2023-05-20T03:17:10;6.13;;;2.50;;
18249;SDS011;27980;52.126;5.572;2023-05-20T03:19:36;4.15;;;2.42;;
18249;SDS011;27980;52.126;5.572;2023-05-20T03:22:03;4.68;;;2.67;;
18249;SDS011;27980;52.126;5.572;2023-05-20T03:24:31;3.72;;;2.60;;
18249;SDS011;27980;52.126;5.572;2023-05-20T03:26:58;4.28;;;3.20;;
18249;SDS011;27980;52.126;5.572;2023-05-20T03:29:25;3.90;;;2.97;;
18249;SDS011;27980;52.126;5.572;2023-05-20T03:31:51;2.83;;;2.53;;
18249;SDS011;27980;52.126;5.572;2023-05-20T03:34:17;2.92;;;2.50;;
18249;SDS011;27980;52.126;5.572;2023-05-20T03:36:44;2.72;;;2.45;;
18249;SDS011;27980;52.126;5.572;2023-05-20T03:39:10;5.35;;;2.88;;
18249;SDS011;27980;52.126;5.572;2023-05-20T03:41:38;4.10;;;2.47;;
18249;SDS011;27980;52.126;5.572;2023-05-20T03:44:05;5.07;;;3.20;;
18249;SDS011;27980;52.126;5.572;2023-05-20T03:46:32;5.68;;;2.90;;
18249;SDS011;27980;52.126;5.572;2023-05-20T03:49:00;5.13;;;2.60;;
18249;SDS011;27980;52.126;5.572;2023-05-20T03:51:29;2.78;;;2.42;;
18249;SDS011;27980;52.126;5.572;2023-05-20T03:53:56;3.10;;;2.50;;
18249;SDS011;27980;52.126;5.572;2023-05-20T03:56:23;3.13;;;2.33;;
18249;SDS011;27980;52.126;5.572;2023-05-20T03:58:51;5.50;;;2.90;;
18249;SDS011;27980;52.126;5.572;2023-05-20T04:01:18;5.68;;;2.63;;
18249;SDS011;27980;52.126;5.572;2023-05-20T04:03:45;4.47;;;2.50;;
18249;SDS011;27980;52.126;5.572;2023-05-20T04:06:12;3.75;;;2.65;;
18249;SDS011;27980;52.126;5.572;2023-05-20T04:08:38;4.43;;;2.53;;
18249;SDS011;27980;52.126;5.572;2023-05-20T04:11:05;4.18;;;2.20;;
18249;SDS011;27980;52.126;5.572;2023-05-20T04:13:31;3.58;;;2.50;;
18249;SDS011;27980;52.126;5.572;2023-05-20T04:15:59;3.30;;;2.58;;
18249;SDS011;27980;52.126;5.572;2023-05-20T04:18:29;4.88;;;2.47;;
18249;SDS011;27980;52.126;5.572;2023-05-20T04:20:56;4.32;;;2.58;;
18249;SDS011;27980;52.126;5.572;2023-05-20T04:23:25;4.65;;;2.58;;
18249;SDS011;27980;52.126;5.572;2023-05-20T04:25:52;5.82;;;2.63;;
18249;SDS011;27980;52.126;5.572;2023-05-20T04:28:19;5.53;;;2.50;;
18249;SDS011;27980;52.126;5.572;2023-05-20T04:30:48;3.40;;;2.58;;
18249;SDS011;27980;52.126;5.572;2023-05-20T04:33:15;4.53;;;2.72;;
18249;SDS011;27980;52.126;5.572;2023-05-20T04:35:42;7.22;;;2.90;;
18249;SDS011;27980;52.126;5.572;2023-05-20T04:38:08;5.10;;;2.75;;
18249;SDS011;27980;52.126;5.572;2023-05-20T04:40:35;6.00;;;2.55;;
18249;SDS011;27980;52.126;5.572;2023-05-20T04:43:01;3.63;;;2.55;;
18249;SDS011;27980;52.126;5.572;2023-05-20T04:45:28;4.57;;;2.13;;
18249;SDS011;27980;52.126;5.572;2023-05-20T04:47:55;4.63;;;2.55;;
18249;SDS011;27980;52.126;5.572;2023-05-20T04:50:23;4.28;;;2.83;;
18249;SDS011;27980;52.126;5.572;2023-05-20T04:52:49;3.10;;;2.70;;
18249;SDS011;27980;52.126;5.572;2023-05-20T04:55:17;3.72;;;2.42;;
18249;SDS011;27980;52.126;5.572;2023-05-20T04:57:44;4.93;;;2.58;;
18249;SDS011;27980;52.126;5.572;2023-05-20T05:00:10;4.32;;;2.80;;
18249;SDS011;27980;52.126;5.572;2023-05-20T05:02:37;3.10;;;2.80;;
18249;SDS011;27980;52.126;5.572;2023-05-20T05:05:07;3.67;;;2.95;;
18249;SDS011;27980;52.126;5.572;2023-05-20T05:07:35;6.03;;;2.67;;
18249;SDS011;27980;52.126;5.572;2023-05-20T05:10:01;4.50;;;2.97;;
18249;SDS011;27980;52.126;5.572;2023-05-20T05:12:28;6.05;;;2.97;;
18249;SDS011;27980;52.126;5.572;2023-05-20T05:14:54;3.38;;;2.58;;
18249;SDS011;27980;52.126;5.572;2023-05-20T05:17:22;4.90;;;2.97;;
18249;SDS011;27980;52.126;5.572;2023-05-20T05:19:48;3.78;;;2.88;;
18249;SDS011;27980;52.126;5.572;2023-05-20T05:22:15;5.93;;;2.75;;
18249;SDS011;27980;52.126;5.572;2023-05-20T05:24:43;3.30;;;2.75;;
18249;SDS011;27980;52.126;5.572;2023-05-20T05:27:09;3.03;;;2.38;;
18249;SDS011;27980;52.126;5.572;2023-05-20T05:29:36;7.80;;;2.95;;
18249;SDS011;27980;52.126;5.572;2023-05-20T05:32:02;4.43;;;2.40;;
18249;SDS011;27980;52.126;5.572;2023-05-20T05:34:28;3.17;;;2.15;;
18249;SDS011;27980;52.126;5.572;2023-05-20T05:36:55;5.25;;;2.80;;
18249;SDS011;27980;52.126;5.572;2023-05-20T05:39:22;7.47;;;2.80;;
18249;SDS011;27980;52.126;5.572;2023-05-20T05:41:49;4.57;;;2.75;;
18249;SDS011;27980;52.126;5.572;2023-05-20T05:44:20;6.22;;;2.75;;
18249;SDS011;27980;52.126;5.572;2023-05-20T05:46:46;3.17;;;2.75;;
18249;SDS011;27980;52.126;5.572;2023-05-20T05:49:12;3.45;;;2.25;;
18249;SDS011;27980;52.126;5.572;2023-05-20T05:51:39;4.97;;;2.75;;
18249;SDS011;27980;52.126;5.572;2023-05-20T05:54:06;3.58;;;2.33;;
18249;SDS011;27980;52.126;5.572;2023-05-20T05:56:32;3.58;;;2.30;;
18249;SDS011;27980;52.126;5.572;2023-05-20T05:59:00;5.00;;;2.95;;
18249;SDS011;27980;52.126;5.572;2023-05-20T06:01:27;4.43;;;2.95;;
18249;SDS011;27980;52.126;5.572;2023-05-20T06:03:54;3.53;;;2.63;;
18249;SDS011;27980;52.126;5.572;2023-05-20T06:06:20;3.28;;;2.42;;
18249;SDS011;27980;52.126;5.572;2023-05-20T06:08:46;4.30;;;2.20;;
18249;SDS011;27980;52.126;5.572;2023-05-20T06:11:14;4.10;;;1.98;;
18249;SDS011;27980;52.126;5.572;2023-05-20T06:13:40;2.75;;;2.30;;
18249;SDS011;27980;52.126;5.572;2023-05-20T06:16:09;3.08;;;2.40;;
18249;SDS011;27980;52.126;5.572;2023-05-20T06:18:35;2.38;;;2.00;;
18249;SDS011;27980;52.126;5.572;2023-05-20T06:21:01;2.95;;;2.28;;
18249;SDS011;27980;52.126;5.572;2023-05-20T06:23:27;3.75;;;2.10;;
18249;SDS011;27980;52.126;5.572;2023-05-20T06:25:56;4.07;;;2.20;;
18249;SDS011;27980;52.126;5.572;2023-05-20T06:28:22;3.55;;;2.10;;
18249;SDS011;27980;52.126;5.572;2023-05-20T06:30:49;3.20;;;2.10;;
18249;SDS011;27980;52.126;5.572;2023-05-20T06:33:18;4.20;;;1.88;;
18249;SDS011;27980;52.126;5.572;2023-05-20T06:35:44;4.97;;;2.25;;
18249;SDS011;27980;52.126;5.572;2023-05-20T06:38:11;6.07;;;2.13;;
18249;SDS011;27980;52.126;5.572;2023-05-20T06:40:37;3.72;;;1.90;;
18249;SDS011;27980;52.126;5.572;2023-05-20T06:43:03;3.17;;;1.60;;
18249;SDS011;27980;52.126;5.572;2023-05-20T06:45:30;3.75;;;1.60;;
18249;SDS011;27980;52.126;5.572;2023-05-20T06:47:57;1.55;;;1.45;;
18249;SDS011;27980;52.126;5.572;2023-05-20T06:50:25;1.58;;;1.33;;
18249;SDS011;27980;52.126;5.572;2023-05-20T06:52:53;1.92;;;1.50;;
18249;SDS011;27980;52.126;5.572;2023-05-20T06:55:20;1.90;;;1.42;;
18249;SDS011;27980;52.126;5.572;2023-05-20T06:57:46;2.28;;;1.63;;
18249;SDS011;27980;52.126;5.572;2023-05-20T07:00:12;3.55;;;1.88;;
18249;SDS011;27980;52.126;5.572;2023-05-20T07:02:39;2.63;;;1.58;;
18249;SDS011;27980;52.126;5.572;2023-05-20T07:05:05;2.60;;;1.70;;
18249;SDS011;27980;52.126;5.572;2023-05-20T07:07:33;2.75;;;1.80;;
18249;SDS011;27980;52.126;5.572;2023-05-20T07:10:00;1.95;;;1.52;;
18249;SDS011;27980;52.126;5.572;2023-05-20T07:12:26;3.55;;;1.63;;
18249;SDS011;27980;52.126;5.572;2023-05-20T07:14:53;1.75;;;1.05;;
18249;SDS011;27980;52.126;5.572;2023-05-20T07:17:19;1.33;;;1.23;;
18249;SDS011;27980;52.126;5.572;2023-05-20T07:19:45;1.80;;;1.27;;
18249;SDS011;27980;52.126;5.572;2023-05-20T07:22:12;2.15;;;1.13;;
18249;SDS011;27980;52.126;5.572;2023-05-20T07:24:39;2.70;;;1.63;;
18249;SDS011;27980;52.126;5.572;2023-05-20T07:27:06;1.55;;;1.15;;
18249;SDS011;27980;52.126;5.572;2023-05-20T07:29:32;1.98;;;1.30;;
18249;SDS011;27980;52.126;5.572;2023-05-20T07:31:59;3.10;;;1.15;;
18249;SDS011;27980;52.126;5.572;2023-05-20T07:34:27;1.58;;;1.30;;
18249;SDS011;27980;52.126;5.572;2023-05-20T07:36:53;1.08;;;0.90;;
18249;SDS011;27980;52.126;5.572;2023-05-20T07:39:21;1.45;;;1.35;;
18249;SDS011;27980;52.126;5.572;2023-05-20T07:41:49;1.30;;;0.90;;
18249;SDS011;27980;52.126;5.572;2023-05-20T07:44:15;1.77;;;1.48;;
18249;SDS011;27980;52.126;5.572;2023-05-20T07:46:44;1.58;;;1.08;;
18249;SDS011;27980;52.126;5.572;2023-05-20T07:49:13;1.60;;;1.23;;
18249;SDS011;27980;52.126;5.572;2023-05-20T07:51:39;0.85;;;0.85;;
18249;SDS011;27980;52.126;5.572;2023-05-20T07:54:06;0.65;;;0.65;;
18249;SDS011;27980;52.126;5.572;2023-05-20T07:56:33;1.10;;;0.90;;
18249;SDS011;27980;52.126;5.572;2023-05-20T07:59:01;4.95;;;1.70;;
18249;SDS011;27980;52.126;5.572;2023-05-20T08:01:28;2.53;;;1.30;;
18249;SDS011;27980;52.126;5.572;2023-05-20T08:03:54;2.22;;;1.30;;
18249;SDS011;27980;52.126;5.572;2023-05-20T08:06:21;1.70;;;1.02;;
18249;SDS011;27980;52.126;5.572;2023-05-20T08:08:48;1.35;;;1.15;;
18249;SDS011;27980;52.126;5.572;2023-05-20T08:11:18;1.95;;;1.20;;
18249;SDS011;27980;52.126;5.572;2023-05-20T08:13:45;1.38;;;0.90;;
18249;SDS011;27980;52.126;5.572;2023-05-20T08:16:13;1.92;;;1.08;;
18249;SDS011;27980;52.126;5.572;2023-05-20T08:18:39;1.77;;;1.20;;
18249;SDS011;27980;52.126;5.572;2023-05-20T08:21:05;1.20;;;0.93;;
18249;SDS011;27980;52.126;5.572;2023-05-20T08:23:32;2.65;;;1.10;;
18249;SDS011;27980;52.126;5.572;2023-05-20T08:25:59;1.65;;;1.20;;
18249;SDS011;27980;52.126;5.572;2023-05-20T08:28:27;1.67;;;1.30;;
18249;SDS011;27980;52.126;5.572;2023-05-20T08:30:53;2.08;;;1.30;;
18249;SDS011;27980;52.126;5.572;2023-05-20T08:33:23;3.05;;;0.90;;
18249;SDS011;27980;52.126;5.572;2023-05-20T08:35:50;1.20;;;1.10;;
18249;SDS011;27980;52.126;5.572;2023-05-20T08:38:17;0.88;;;0.82;;
18249;SDS011;27980;52.126;5.572;2023-05-20T08:40:43;1.85;;;1.00;;
18249;SDS011;27980;52.126;5.572;2023-05-20T08:43:10;1.55;;;1.10;;
18249;SDS011;27980;52.126;5.572;2023-05-20T08:45:37;2.55;;;1.27;;
18249;SDS011;27980;52.126;5.572;2023-05-20T08:48:03;1.08;;;0.90;;
18249;SDS011;27980;52.126;5.572;2023-05-20T08:50:31;1.10;;;1.00;;
18249;SDS011;27980;52.126;5.572;2023-05-20T08:52:58;1.75;;;1.30;;
18249;SDS011;27980;52.126;5.572;2023-05-20T08:55:24;2.13;;;1.02;;
18249;SDS011;27980;52.126;5.572;2023-05-20T08:57:51;1.67;;;0.90;;
18249;SDS011;27980;52.126;5.572;2023-05-20T09:00:18;1.15;;;1.02;;
18249;SDS011;27980;52.126;5.572;2023-05-20T09:02:46;1.95;;;1.08;;
18249;SDS011;27980;52.126;5.572;2023-05-20T09:05:16;1.20;;;1.08;;
18249;SDS011;27980;52.126;5.572;2023-05-20T09:07:44;1.77;;;1.08;;
18249;SDS011;27980;52.126;5.572;2023-05-20T09:10:10;1.80;;;1.20;;
18249;SDS011;27980;52.126;5.572;2023-05-20T09:12:37;2.50;;;1.00;;
18249;SDS011;27980;52.126;5.572;2023-05-20T09:15:04;1.73;;;1.15;;
18249;SDS011;27980;52.126;5.572;2023-05-20T09:17:31;1.13;;;0.98;;
18249;SDS011;27980;52.126;5.572;2023-05-20T09:20:00;3.63;;;1.33;;
18249;SDS011;27980;52.126;5.572;2023-05-20T09:22:27;3.22;;;1.08;;
18249;SDS011;27980;52.126;5.572;2023-05-20T09:24:55;4.22;;;1.00;;
18249;SDS011;27980;52.126;5.572;2023-05-20T09:27:21;3.03;;;1.33;;
18249;SDS011;27980;52.126;5.572;2023-05-20T09:29:48;1.42;;;1.10;;
18249;SDS011;27980;52.126;5.572;2023-05-20T09:32:15;3.03;;;1.10;;
18249;SDS011;27980;52.126;5.572;2023-05-20T09:34:42;1.15;;;1.05;;
18249;SDS011;27980;52.126;5.572;2023-05-20T09:37:09;2.15;;;1.30;;
18249;SDS011;27980;52.126;5.572;2023-05-20T09:39:41;1.00;;;0.82;;
18249;SDS011;27980;52.126;5.572;2023-05-20T09:42:11;1.55;;;1.17;;
18249;SDS011;27980;52.126;5.572;2023-05-20T09:44:42;2.22;;;0.93;;
18249;SDS011;27980;52.126;5.572;2023-05-20T09:47:10;3.05;;;0.90;;
18249;SDS011;27980;52.126;5.572;2023-05-20T09:49:37;2.20;;;1.20;;
18249;SDS011;27980;52.126;5.572;2023-05-20T09:52:04;0.80;;;0.80;;
18249;SDS011;27980;52.126;5.572;2023-05-20T09:54:32;1.17;;;1.08;;
18249;SDS011;27980;52.126;5.572;2023-05-20T09:56:58;2.03;;;1.05;;
18249;SDS011;27980;52.126;5.572;2023-05-20T09:59:29;1.58;;;1.05;;
18249;SDS011;27980;52.126;5.572;2023-05-20T10:01:56;1.60;;;1.02;;
18249;SDS011;27980;52.126;5.572;2023-05-20T10:04:23;0.88;;;0.70;;
18249;SDS011;27980;52.126;5.572;2023-05-20T10:07:04;1.63;;;0.80;;
18249;SDS011;27980;52.126;5.572;2023-05-20T10:09:39;2.90;;;1.13;;
18249;SDS011;27980;52.126;5.572;2023-05-20T10:12:10;1.40;;;1.02;;
18249;SDS011;27980;52.126;5.572;2023-05-20T10:14:42;2.35;;;1.20;;
18249;SDS011;27980;52.126;5.572;2023-05-20T10:17:16;1.50;;;1.10;;
18249;SDS011;27980;52.126;5.572;2023-05-20T10:19:42;2.08;;;1.10;;
18249;SDS011;27980;52.126;5.572;2023-05-20T10:22:09;1.45;;;0.93;;
18249;SDS011;27980;52.126;5.572;2023-05-20T10:24:37;2.35;;;1.02;;
18249;SDS011;27980;52.126;5.572;2023-05-20T10:27:06;1.38;;;1.00;;
18249;SDS011;27980;52.126;5.572;2023-05-20T10:29:44;1.60;;;1.00;;
18249;SDS011;27980;52.126;5.572;2023-05-20T10:32:22;1.40;;;0.90;;
18249;SDS011;27980;52.126;5.572;2023-05-20T10:34:49;1.67;;;1.10;;
18249;SDS011;27980;52.126;5.572;2023-05-20T10:37:22;1.80;;;1.10;;
18249;SDS011;27980;52.126;5.572;2023-05-20T10:39:50;2.00;;;1.02;;
18249;SDS011;27980;52.126;5.572;2023-05-20T10:42:16;1.10;;;1.00;;
18249;SDS011;27980;52.126;5.572;2023-05-20T10:44:54;3.25;;;1.02;;
18249;SDS011;27980;52.126;5.572;2023-05-20T10:47:20;2.25;;;0.90;;
18249;SDS011;27980;52.126;5.572;2023-05-20T10:49:47;1.85;;;1.00;;
18249;SDS011;27980;52.126;5.572;2023-05-20T10:52:15;1.38;;;1.08;;
18249;SDS011;27980;52.126;5.572;2023-05-20T10:54:42;1.63;;;1.25;;
18249;SDS011;27980;52.126;5.572;2023-05-20T10:57:09;0.80;;;0.80;;
18249;SDS011;27980;52.126;5.572;2023-05-20T10:59:37;4.00;;;1.13;;
18249;SDS011;27980;52.126;5.572;2023-05-20T11:02:05;0.85;;;0.85;;
18249;SDS011;27980;52.126;5.572;2023-05-20T11:04:31;1.10;;;0.85;;
18249;SDS011;27980;52.126;5.572;2023-05-20T11:06:58;1.15;;;0.82;;
18249;SDS011;27980;52.126;5.572;2023-05-20T11:09:25;2.63;;;1.23;;
18249;SDS011;27980;52.126;5.572;2023-05-20T11:11:52;0.90;;;0.90;;
18249;SDS011;27980;52.126;5.572;2023-05-20T11:14:20;1.88;;;1.10;;
18249;SDS011;27980;52.126;5.572;2023-05-20T11:16:49;1.65;;;0.77;;
18249;SDS011;27980;52.126;5.572;2023-05-20T11:19:19;1.75;;;1.00;;
18249;SDS011;27980;52.126;5.572;2023-05-20T11:21:45;1.58;;;1.13;;
18249;SDS011;27980;52.126;5.572;2023-05-20T11:24:22;1.38;;;1.00;;
18249;SDS011;27980;52.126;5.572;2023-05-20T11:26:48;0.70;;;0.63;;
18249;SDS011;27980;52.126;5.572;2023-05-20T11:29:15;1.85;;;0.90;;
18249;SDS011;27980;52.126;5.572;2023-05-20T11:31:46;2.80;;;1.10;;
18249;SDS011;27980;52.126;5.572;2023-05-20T11:34:13;1.95;;;1.10;;
18249;SDS011;27980;52.126;5.572;2023-05-20T11:36:42;2.10;;;1.10;;
18249;SDS011;27980;52.126;5.572;2023-05-20T11:39:09;2.03;;;1.17;;
18249;SDS011;27980;52.126;5.572;2023-05-20T11:41:37;1.75;;;1.00;;
18249;SDS011;27980;52.126;5.572;2023-05-20T11:44:06;2.08;;;0.90;;
18249;SDS011;27980;52.126;5.572;2023-05-20T11:46:34;1.85;;;1.05;;
18249;SDS011;27980;52.126;5.572;2023-05-20T11:49:06;1.42;;;0.98;;
18249;SDS011;27980;52.126;5.572;2023-05-20T11:51:32;5.93;;;1.40;;
18249;SDS011;27980;52.126;5.572;2023-05-20T11:54:00;0.80;;;0.80;;
18249;SDS011;27980;52.126;5.572;2023-05-20T11:56:27;0.75;;;0.70;;
18249;SDS011;27980;52.126;5.572;2023-05-20T11:58:55;1.05;;;0.90;;
18249;SDS011;27980;52.126;5.572;2023-05-20T12:01:21;1.08;;;0.98;;
18249;SDS011;27980;52.126;5.572;2023-05-20T12:03:48;0.77;;;0.70;;
18249;SDS011;27980;52.126;5.572;2023-05-20T12:06:15;1.15;;;0.75;;
18249;SDS011;27980;52.126;5.572;2023-05-20T12:08:42;0.80;;;0.75;;
18249;SDS011;27980;52.126;5.572;2023-05-20T12:11:10;2.08;;;0.90;;
18249;SDS011;27980;52.126;5.572;2023-05-20T12:13:36;1.25;;;1.15;;
18249;SDS011;27980;52.126;5.572;2023-05-20T12:16:05;1.13;;;0.73;;
18249;SDS011;27980;52.126;5.572;2023-05-20T12:18:32;1.20;;;1.00;;
18249;SDS011;27980;52.126;5.572;2023-05-20T12:20:58;1.10;;;1.00;;
18249;SDS011;27980;52.126;5.572;2023-05-20T12:23:26;0.98;;;0.80;;
18249;SDS011;27980;52.126;5.572;2023-05-20T12:25:54;1.90;;;0.98;;
18249;SDS011;27980;52.126;5.572;2023-05-20T12:28:22;1.17;;;1.05;;
18249;SDS011;27980;52.126;5.572;2023-05-20T12:30:48;1.85;;;1.58;;
18249;SDS011;27980;52.126;5.572;2023-05-20T12:33:15;1.90;;;1.27;;
18249;SDS011;27980;52.126;5.572;2023-05-20T12:35:42;2.60;;;0.75;;
18249;SDS011;27980;52.126;5.572;2023-05-20T12:38:08;1.35;;;1.25;;
18249;SDS011;27980;52.126;5.572;2023-05-20T12:40:35;1.23;;;0.95;;
18249;SDS011;27980;52.126;5.572;2023-05-20T12:43:03;1.75;;;0.90;;
18249;SDS011;27980;52.126;5.572;2023-05-20T12:45:32;1.55;;;0.95;;
18249;SDS011;27980;52.126;5.572;2023-05-20T12:48:00;6.43;;;0.75;;
18249;SDS011;27980;52.126;5.572;2023-05-20T12:50:27;1.13;;;0.90;;
18249;SDS011;27980;52.126;5.572;2023-05-20T12:52:56;1.02;;;0.80;;
18249;SDS011;27980;52.126;5.572;2023-05-20T12:55:22;1.27;;;1.10;;
18249;SDS011;27980;52.126;5.572;2023-05-20T12:57:49;3.50;;;0.93;;
18249;SDS011;27980;52.126;5.572;2023-05-20T13:00:15;2.17;;;1.42;;
18249;SDS011;27980;52.126;5.572;2023-05-20T13:02:46;4.90;;;1.00;;
18249;SDS011;27980;52.126;5.572;2023-05-20T13:05:14;0.90;;;0.90;;
18249;SDS011;27980;52.126;5.572;2023-05-20T13:07:40;1.90;;;1.00;;
18249;SDS011;27980;52.126;5.572;2023-05-20T13:10:09;1.00;;;0.95;;
18249;SDS011;27980;52.126;5.572;2023-05-20T13:12:36;0.75;;;0.75;;
18249;SDS011;27980;52.126;5.572;2023-05-20T13:15:03;2.05;;;1.00;;
18249;SDS011;27980;52.126;5.572;2023-05-20T13:17:30;1.38;;;0.90;;
18249;SDS011;27980;52.126;5.572;2023-05-20T13:19:58;1.30;;;0.70;;
18249;SDS011;27980;52.126;5.572;2023-05-20T13:22:24;2.78;;;0.70;;
18249;SDS011;27980;52.126;5.572;2023-05-20T13:24:51;1.90;;;1.00;;
18249;SDS011;27980;52.126;5.572;2023-05-20T13:27:18;1.80;;;1.15;;
18249;SDS011;27980;52.126;5.572;2023-05-20T13:29:46;1.20;;;0.90;;
18249;SDS011;27980;52.126;5.572;2023-05-20T13:32:12;1.30;;;1.17;;
18249;SDS011;27980;52.126;5.572;2023-05-20T13:34:38;1.42;;;0.80;;
18249;SDS011;27980;52.126;5.572;2023-05-20T13:37:06;1.50;;;0.75;;
18249;SDS011;27980;52.126;5.572;2023-05-20T13:39:32;1.33;;;0.90;;
18249;SDS011;27980;52.126;5.572;2023-05-20T13:41:59;2.17;;;1.10;;
18249;SDS011;27980;52.126;5.572;2023-05-20T13:44:26;1.42;;;0.80;;
18249;SDS011;27980;52.126;5.572;2023-05-20T13:46:52;1.17;;;0.90;;
18249;SDS011;27980;52.126;5.572;2023-05-20T13:49:19;1.20;;;0.93;;
18249;SDS011;27980;52.126;5.572;2023-05-20T13:51:45;2.45;;;0.90;;
18249;SDS011;27980;52.126;5.572;2023-05-20T13:54:15;3.67;;;0.93;;
18249;SDS011;27980;52.126;5.572;2023-05-20T13:56:42;1.27;;;0.88;;
18249;SDS011;27980;52.126;5.572;2023-05-20T13:59:09;1.13;;;0.95;;
18249;SDS011;27980;52.126;5.572;2023-05-20T14:01:35;1.45;;;1.10;;
18249;SDS011;27980;52.126;5.572;2023-05-20T14:04:03;2.25;;;1.02;;
18249;SDS011;27980;52.126;5.572;2023-05-20T14:06:30;1.92;;;1.33;;
18249;SDS011;27980;52.126;5.572;2023-05-20T14:08:57;1.20;;;1.10;;
18249;SDS011;27980;52.126;5.572;2023-05-20T14:11:25;1.58;;;0.90;;
18249;SDS011;27980;52.126;5.572;2023-05-20T14:13:51;1.13;;;1.02;;
18249;SDS011;27980;52.126;5.572;2023-05-20T14:16:17;1.90;;;0.85;;
18249;SDS011;27980;52.126;5.572;2023-05-20T14:18:44;1.67;;;0.90;;
18249;SDS011;27980;52.126;5.572;2023-05-20T14:21:11;2.40;;;1.30;;
18249;SDS011;27980;52.126;5.572;2023-05-20T14:23:38;0.80;;;0.80;;
18249;SDS011;27980;52.126;5.572;2023-05-20T14:26:05;2.50;;;0.75;;
18249;SDS011;27980;52.126;5.572;2023-05-20T14:28:32;4.70;;;1.10;;
18249;SDS011;27980;52.126;5.572;2023-05-20T14:30:59;0.80;;;0.80;;
18249;SDS011;27980;52.126;5.572;2023-05-20T14:33:27;1.48;;;0.90;;
18249;SDS011;27980;52.126;5.572;2023-05-20T14:35:53;0.90;;;0.90;;
18249;SDS011;27980;52.126;5.572;2023-05-20T14:38:20;1.58;;;1.13;;
18249;SDS011;27980;52.126;5.572;2023-05-20T14:40:47;3.45;;;1.00;;
18249;SDS011;27980;52.126;5.572;2023-05-20T14:43:13;1.10;;;0.85;;
18249;SDS011;27980;52.126;5.572;2023-05-20T14:45:41;1.48;;;1.02;;
18249;SDS011;27980;52.126;5.572;2023-05-20T14:48:08;1.67;;;1.00;;